Rzhev, Russia
Current Conditions -  °F | °C
As of 11:30 AM on Tuesday 21 Oct 2014 (Local Time) from UUBW Reporting Station
Drizzle Drizzle  
Wind Chill: 34°   Ceiling: 400
Heat Index: 37°   Visibility: 1.5mi
Dew Point: 36°   Wind: 4mph
Humidity: 93%   Direction: NA
Pressure: 29.32"   Gusts: NA
Location:  56.26°N, 34.33°E
Report Text: UUBW 210830Z VRB02MPS 2500 -DZ BR OVC004 03/02 Q0993 TEMPO 0500DZ FG OVC002 RMK QBB130 SC050
Loading
Personal Weather Stations






























Interactive Weather Map
Tropical Storm Tracking
New forecast layout! Learn more

10-Day Weather Forecast

Advertisements
Track Severe Weather on mobile